sensor_id;sensor_type;location;lat;lon;timestamp;P1;durP1;ratioP1;P2;durP2;ratioP2
30127;SDS011;16942;53.196;6.592;2024-03-29T00:00:02;3.93;;;1.10;;
30127;SDS011;16942;53.196;6.592;2024-03-29T00:02:28;3.90;;;1.00;;
30127;SDS011;16942;53.196;6.592;2024-03-29T00:04:54;5.17;;;1.10;;
30127;SDS011;16942;53.196;6.592;2024-03-29T00:07:20;3.57;;;0.90;;
30127;SDS011;16942;53.196;6.592;2024-03-29T00:09:46;2.67;;;0.90;;
30127;SDS011;16942;53.196;6.592;2024-03-29T00:12:12;2.97;;;1.30;;
30127;SDS011;16942;53.196;6.592;2024-03-29T00:14:38;4.57;;;0.70;;
30127;SDS011;16942;53.196;6.592;2024-03-29T00:17:04;1.83;;;0.80;;
30127;SDS011;16942;53.196;6.592;2024-03-29T00:19:30;2.60;;;0.73;;
30127;SDS011;16942;53.196;6.592;2024-03-29T00:21:57;4.60;;;1.07;;
30127;SDS011;16942;53.196;6.592;2024-03-29T00:24:23;1.57;;;0.80;;
30127;SDS011;16942;53.196;6.592;2024-03-29T00:26:49;5.40;;;0.90;;
30127;SDS011;16942;53.196;6.592;2024-03-29T00:29:15;4.37;;;1.20;;
30127;SDS011;16942;53.196;6.592;2024-03-29T00:31:41;3.33;;;0.90;;
30127;SDS011;16942;53.196;6.592;2024-03-29T00:34:07;5.43;;;0.87;;
30127;SDS011;16942;53.196;6.592;2024-03-29T00:36:33;1.67;;;0.90;;
30127;SDS011;16942;53.196;6.592;2024-03-29T00:38:59;1.60;;;0.70;;
30127;SDS011;16942;53.196;6.592;2024-03-29T00:41:25;7.17;;;1.27;;
30127;SDS011;16942;53.196;6.592;2024-03-29T00:43:51;7.53;;;1.10;;
30127;SDS011;16942;53.196;6.592;2024-03-29T00:46:17;8.07;;;0.90;;
30127;SDS011;16942;53.196;6.592;2024-03-29T00:48:43;5.10;;;1.00;;
30127;SDS011;16942;53.196;6.592;2024-03-29T00:51:11;1.30;;;0.90;;
30127;SDS011;16942;53.196;6.592;2024-03-29T00:53:37;6.20;;;1.03;;
30127;SDS011;16942;53.196;6.592;2024-03-29T00:56:04;3.20;;;0.80;;
30127;SDS011;16942;53.196;6.592;2024-03-29T00:58:30;4.67;;;1.20;;
30127;SDS011;16942;53.196;6.592;2024-03-29T01:00:56;6.73;;;1.20;;
30127;SDS011;16942;53.196;6.592;2024-03-29T01:03:22;4.67;;;0.90;;
30127;SDS011;16942;53.196;6.592;2024-03-29T01:05:49;2.63;;;0.90;;
30127;SDS011;16942;53.196;6.592;2024-03-29T01:08:15;6.20;;;1.03;;
30127;SDS011;16942;53.196;6.592;2024-03-29T01:10:41;3.33;;;0.97;;
30127;SDS011;16942;53.196;6.592;2024-03-29T01:13:07;4.40;;;1.20;;
30127;SDS011;16942;53.196;6.592;2024-03-29T01:15:33;3.73;;;0.90;;
30127;SDS011;16942;53.196;6.592;2024-03-29T01:17:59;2.00;;;0.90;;
30127;SDS011;16942;53.196;6.592;2024-03-29T01:20:25;2.00;;;0.90;;
30127;SDS011;16942;53.196;6.592;2024-03-29T01:22:51;4.97;;;1.00;;
30127;SDS011;16942;53.196;6.592;2024-03-29T01:25:17;10.27;;;2.40;;
30127;SDS011;16942;53.196;6.592;2024-03-29T01:27:43;10.67;;;1.00;;
30127;SDS011;16942;53.196;6.592;2024-03-29T01:30:09;3.50;;;0.90;;
30127;SDS011;16942;53.196;6.592;2024-03-29T01:32:35;5.00;;;1.23;;
30127;SDS011;16942;53.196;6.592;2024-03-29T01:35:01;4.67;;;1.00;;
30127;SDS011;16942;53.196;6.592;2024-03-29T01:37:27;4.60;;;0.93;;
30127;SDS011;16942;53.196;6.592;2024-03-29T01:39:53;3.10;;;0.87;;
30127;SDS011;16942;53.196;6.592;2024-03-29T01:42:19;4.00;;;1.03;;
30127;SDS011;16942;53.196;6.592;2024-03-29T01:44:45;1.33;;;0.90;;
30127;SDS011;16942;53.196;6.592;2024-03-29T01:47:11;8.70;;;0.70;;
30127;SDS011;16942;53.196;6.592;2024-03-29T01:49:37;2.73;;;0.77;;
30127;SDS011;16942;53.196;6.592;2024-03-29T01:52:04;4.07;;;0.90;;
30127;SDS011;16942;53.196;6.592;2024-03-29T01:54:30;6.10;;;0.87;;
30127;SDS011;16942;53.196;6.592;2024-03-29T01:56:56;7.20;;;1.00;;
30127;SDS011;16942;53.196;6.592;2024-03-29T01:59:23;5.13;;;1.37;;
30127;SDS011;16942;53.196;6.592;2024-03-29T02:01:49;1.17;;;0.70;;
30127;SDS011;16942;53.196;6.592;2024-03-29T02:04:15;3.13;;;1.07;;
30127;SDS011;16942;53.196;6.592;2024-03-29T02:06:41;4.80;;;1.10;;
30127;SDS011;16942;53.196;6.592;2024-03-29T02:09:07;4.73;;;1.00;;
30127;SDS011;16942;53.196;6.592;2024-03-29T02:11:33;3.83;;;1.07;;
30127;SDS011;16942;53.196;6.592;2024-03-29T02:14:00;3.53;;;0.83;;
30127;SDS011;16942;53.196;6.592;2024-03-29T02:16:26;2.93;;;0.80;;
30127;SDS011;16942;53.196;6.592;2024-03-29T02:18:52;2.33;;;0.80;;
30127;SDS011;16942;53.196;6.592;2024-03-29T02:21:18;14.63;;;1.70;;
30127;SDS011;16942;53.196;6.592;2024-03-29T02:23:44;2.63;;;1.13;;
30127;SDS011;16942;53.196;6.592;2024-03-29T02:26:13;2.90;;;1.50;;
30127;SDS011;16942;53.196;6.592;2024-03-29T02:28:39;3.37;;;1.23;;
30127;SDS011;16942;53.196;6.592;2024-03-29T02:31:05;5.00;;;1.10;;
30127;SDS011;16942;53.196;6.592;2024-03-29T02:33:31;5.00;;;1.03;;
30127;SDS011;16942;53.196;6.592;2024-03-29T02:35:57;6.17;;;0.93;;
30127;SDS011;16942;53.196;6.592;2024-03-29T02:38:23;4.23;;;0.90;;
30127;SDS011;16942;53.196;6.592;2024-03-29T02:40:49;1.70;;;0.60;;
30127;SDS011;16942;53.196;6.592;2024-03-29T02:43:15;3.13;;;0.90;;
30127;SDS011;16942;53.196;6.592;2024-03-29T02:45:42;2.87;;;0.80;;
30127;SDS011;16942;53.196;6.592;2024-03-29T02:48:08;2.50;;;0.70;;
30127;SDS011;16942;53.196;6.592;2024-03-29T02:50:34;1.23;;;0.90;;
30127;SDS011;16942;53.196;6.592;2024-03-29T02:53:00;3.00;;;0.63;;
30127;SDS011;16942;53.196;6.592;2024-03-29T02:55:26;5.70;;;0.90;;
30127;SDS011;16942;53.196;6.592;2024-03-29T02:57:52;4.33;;;0.80;;
30127;SDS011;16942;53.196;6.592;2024-03-29T03:00:18;4.33;;;0.90;;
30127;SDS011;16942;53.196;6.592;2024-03-29T03:02:44;6.27;;;1.07;;
30127;SDS011;16942;53.196;6.592;2024-03-29T03:05:10;3.33;;;0.80;;
30127;SDS011;16942;53.196;6.592;2024-03-29T03:07:36;2.30;;;0.90;;
30127;SDS011;16942;53.196;6.592;2024-03-29T03:10:20;3.67;;;0.70;;
30127;SDS011;16942;53.196;6.592;2024-03-29T03:13:05;2.13;;;1.60;;
30127;SDS011;16942;53.196;6.592;2024-03-29T03:15:31;4.13;;;1.57;;
30127;SDS011;16942;53.196;6.592;2024-03-29T03:17:57;2.13;;;0.90;;
30127;SDS011;16942;53.196;6.592;2024-03-29T03:20:23;2.30;;;0.67;;
30127;SDS011;16942;53.196;6.592;2024-03-29T03:22:55;1.87;;;0.70;;
30127;SDS011;16942;53.196;6.592;2024-03-29T03:25:22;6.20;;;2.03;;
30127;SDS011;16942;53.196;6.592;2024-03-29T03:27:48;6.10;;;0.90;;
30127;SDS011;16942;53.196;6.592;2024-03-29T03:30:14;2.67;;;0.90;;
30127;SDS011;16942;53.196;6.592;2024-03-29T03:32:40;6.67;;;1.13;;
30127;SDS011;16942;53.196;6.592;2024-03-29T03:35:06;6.37;;;0.93;;
30127;SDS011;16942;53.196;6.592;2024-03-29T03:37:32;7.67;;;1.00;;
30127;SDS011;16942;53.196;6.592;2024-03-29T03:39:58;2.37;;;0.80;;
30127;SDS011;16942;53.196;6.592;2024-03-29T03:42:24;5.00;;;0.93;;
30127;SDS011;16942;53.196;6.592;2024-03-29T03:44:50;4.20;;;0.90;;
30127;SDS011;16942;53.196;6.592;2024-03-29T03:47:16;3.80;;;0.90;;
30127;SDS011;16942;53.196;6.592;2024-03-29T03:49:42;3.83;;;1.10;;
30127;SDS011;16942;53.196;6.592;2024-03-29T03:52:09;5.07;;;0.90;;
30127;SDS011;16942;53.196;6.592;2024-03-29T03:54:35;2.03;;;0.57;;
30127;SDS011;16942;53.196;6.592;2024-03-29T03:57:01;4.73;;;1.13;;
30127;SDS011;16942;53.196;6.592;2024-03-29T03:59:27;4.20;;;0.83;;
30127;SDS011;16942;53.196;6.592;2024-03-29T04:01:53;1.20;;;0.67;;
30127;SDS011;16942;53.196;6.592;2024-03-29T04:04:19;1.90;;;0.80;;
30127;SDS011;16942;53.196;6.592;2024-03-29T04:06:45;3.00;;;1.20;;
30127;SDS011;16942;53.196;6.592;2024-03-29T04:09:14;3.73;;;0.83;;
30127;SDS011;16942;53.196;6.592;2024-03-29T04:11:43;4.53;;;1.43;;
30127;SDS011;16942;53.196;6.592;2024-03-29T04:14:09;4.60;;;0.90;;
30127;SDS011;16942;53.196;6.592;2024-03-29T04:16:35;6.47;;;0.90;;
30127;SDS011;16942;53.196;6.592;2024-03-29T04:19:01;3.57;;;0.80;;
30127;SDS011;16942;53.196;6.592;2024-03-29T04:21:27;4.20;;;1.00;;
30127;SDS011;16942;53.196;6.592;2024-03-29T04:23:53;2.73;;;0.80;;
30127;SDS011;16942;53.196;6.592;2024-03-29T04:26:19;5.33;;;1.40;;
30127;SDS011;16942;53.196;6.592;2024-03-29T04:28:45;2.67;;;0.80;;
30127;SDS011;16942;53.196;6.592;2024-03-29T04:31:11;2.50;;;1.00;;
30127;SDS011;16942;53.196;6.592;2024-03-29T04:33:37;4.53;;;1.00;;
30127;SDS011;16942;53.196;6.592;2024-03-29T04:36:03;3.43;;;0.70;;
30127;SDS011;16942;53.196;6.592;2024-03-29T04:38:30;3.53;;;0.70;;
30127;SDS011;16942;53.196;6.592;2024-03-29T04:40:56;2.97;;;0.70;;
30127;SDS011;16942;53.196;6.592;2024-03-29T04:43:23;3.43;;;0.77;;
30127;SDS011;16942;53.196;6.592;2024-03-29T04:45:50;4.00;;;0.87;;
30127;SDS011;16942;53.196;6.592;2024-03-29T04:48:17;3.30;;;0.70;;
30127;SDS011;16942;53.196;6.592;2024-03-29T04:50:43;4.43;;;1.03;;
30127;SDS011;16942;53.196;6.592;2024-03-29T04:53:09;3.60;;;0.60;;
30127;SDS011;16942;53.196;6.592;2024-03-29T04:55:35;3.30;;;0.57;;
30127;SDS011;16942;53.196;6.592;2024-03-29T04:58:02;8.27;;;0.87;;
30127;SDS011;16942;53.196;6.592;2024-03-29T05:00:28;3.43;;;0.90;;
30127;SDS011;16942;53.196;6.592;2024-03-29T05:02:54;6.77;;;0.97;;
30127;SDS011;16942;53.196;6.592;2024-03-29T05:05:20;2.60;;;0.90;;
30127;SDS011;16942;53.196;6.592;2024-03-29T05:07:46;3.07;;;0.90;;
30127;SDS011;16942;53.196;6.592;2024-03-29T05:10:12;3.60;;;0.90;;
30127;SDS011;16942;53.196;6.592;2024-03-29T05:12:40;5.73;;;0.90;;
30127;SDS011;16942;53.196;6.592;2024-03-29T05:15:06;4.80;;;0.90;;
30127;SDS011;16942;53.196;6.592;2024-03-29T05:17:32;3.47;;;0.77;;
30127;SDS011;16942;53.196;6.592;2024-03-29T05:19:58;2.70;;;0.77;;
30127;SDS011;16942;53.196;6.592;2024-03-29T05:22:24;3.20;;;0.70;;
30127;SDS011;16942;53.196;6.592;2024-03-29T05:24:53;3.10;;;0.83;;
30127;SDS011;16942;53.196;6.592;2024-03-29T05:27:19;4.50;;;1.00;;
30127;SDS011;16942;53.196;6.592;2024-03-29T05:29:45;4.73;;;0.90;;
30127;SDS011;16942;53.196;6.592;2024-03-29T05:32:12;3.13;;;1.60;;
30127;SDS011;16942;53.196;6.592;2024-03-29T05:34:38;2.53;;;0.50;;
30127;SDS011;16942;53.196;6.592;2024-03-29T05:37:04;1.73;;;0.60;;
30127;SDS011;16942;53.196;6.592;2024-03-29T05:39:30;1.30;;;0.60;;
30127;SDS011;16942;53.196;6.592;2024-03-29T05:41:56;3.23;;;0.70;;
30127;SDS011;16942;53.196;6.592;2024-03-29T05:44:23;5.47;;;0.90;;
30127;SDS011;16942;53.196;6.592;2024-03-29T05:46:49;3.20;;;0.90;;
30127;SDS011;16942;53.196;6.592;2024-03-29T05:49:15;1.40;;;0.87;;
30127;SDS011;16942;53.196;6.592;2024-03-29T05:51:41;2.73;;;0.67;;
30127;SDS011;16942;53.196;6.592;2024-03-29T05:54:07;4.53;;;1.03;;
30127;SDS011;16942;53.196;6.592;2024-03-29T05:56:33;5.77;;;0.80;;
30127;SDS011;16942;53.196;6.592;2024-03-29T05:58:59;2.10;;;0.50;;
30127;SDS011;16942;53.196;6.592;2024-03-29T06:01:25;3.30;;;0.60;;
30127;SDS011;16942;53.196;6.592;2024-03-29T06:03:51;3.80;;;0.50;;
30127;SDS011;16942;53.196;6.592;2024-03-29T06:06:19;3.63;;;0.77;;
30127;SDS011;16942;53.196;6.592;2024-03-29T06:08:49;4.23;;;0.80;;
30127;SDS011;16942;53.196;6.592;2024-03-29T06:11:16;3.07;;;1.00;;
30127;SDS011;16942;53.196;6.592;2024-03-29T06:13:42;4.83;;;0.93;;
30127;SDS011;16942;53.196;6.592;2024-03-29T06:16:27;2.43;;;0.77;;
30127;SDS011;16942;53.196;6.592;2024-03-29T06:19:29;5.97;;;0.80;;
30127;SDS011;16942;53.196;6.592;2024-03-29T06:21:55;0.93;;;0.70;;
30127;SDS011;16942;53.196;6.592;2024-03-29T06:24:21;1.60;;;0.80;;
30127;SDS011;16942;53.196;6.592;2024-03-29T06:26:47;1.70;;;0.60;;
30127;SDS011;16942;53.196;6.592;2024-03-29T06:29:14;7.10;;;0.80;;
30127;SDS011;16942;53.196;6.592;2024-03-29T06:31:40;4.80;;;0.93;;
30127;SDS011;16942;53.196;6.592;2024-03-29T06:34:06;1.87;;;0.80;;
30127;SDS011;16942;53.196;6.592;2024-03-29T06:36:32;1.20;;;0.60;;
30127;SDS011;16942;53.196;6.592;2024-03-29T06:39:00;5.93;;;1.00;;
30127;SDS011;16942;53.196;6.592;2024-03-29T06:41:28;1.37;;;0.60;;
30127;SDS011;16942;53.196;6.592;2024-03-29T06:43:54;2.77;;;0.50;;
30127;SDS011;16942;53.196;6.592;2024-03-29T06:46:21;3.83;;;0.60;;
30127;SDS011;16942;53.196;6.592;2024-03-29T06:48:47;6.70;;;0.67;;
30127;SDS011;16942;53.196;6.592;2024-03-29T06:51:14;1.93;;;0.57;;
30127;SDS011;16942;53.196;6.592;2024-03-29T06:53:40;1.97;;;1.00;;
30127;SDS011;16942;53.196;6.592;2024-03-29T06:56:06;1.80;;;0.60;;
30127;SDS011;16942;53.196;6.592;2024-03-29T06:58:32;2.07;;;0.70;;
30127;SDS011;16942;53.196;6.592;2024-03-29T07:00:58;3.97;;;0.60;;
30127;SDS011;16942;53.196;6.592;2024-03-29T07:03:24;3.30;;;0.70;;
30127;SDS011;16942;53.196;6.592;2024-03-29T07:05:50;1.90;;;0.53;;
30127;SDS011;16942;53.196;6.592;2024-03-29T07:08:16;2.43;;;0.50;;
30127;SDS011;16942;53.196;6.592;2024-03-29T07:10:42;3.10;;;0.70;;
30127;SDS011;16942;53.196;6.592;2024-03-29T07:13:08;1.60;;;0.40;;
30127;SDS011;16942;53.196;6.592;2024-03-29T07:15:35;1.20;;;0.50;;
30127;SDS011;16942;53.196;6.592;2024-03-29T07:18:01;1.80;;;0.60;;
30127;SDS011;16942;53.196;6.592;2024-03-29T07:20:30;1.30;;;0.60;;
30127;SDS011;16942;53.196;6.592;2024-03-29T07:22:56;1.63;;;0.70;;
30127;SDS011;16942;53.196;6.592;2024-03-29T07:25:22;2.17;;;0.60;;
30127;SDS011;16942;53.196;6.592;2024-03-29T07:27:48;3.23;;;0.60;;
30127;SDS011;16942;53.196;6.592;2024-03-29T07:30:15;1.33;;;0.50;;
30127;SDS011;16942;53.196;6.592;2024-03-29T07:32:41;1.17;;;0.60;;
30127;SDS011;16942;53.196;6.592;2024-03-29T07:35:08;2.77;;;0.73;;
30127;SDS011;16942;53.196;6.592;2024-03-29T07:37:34;1.40;;;0.40;;
30127;SDS011;16942;53.196;6.592;2024-03-29T07:40:00;0.40;;;0.40;;
30127;SDS011;16942;53.196;6.592;2024-03-29T07:42:26;1.37;;;0.60;;
30127;SDS011;16942;53.196;6.592;2024-03-29T07:44:52;3.13;;;0.63;;
30127;SDS011;16942;53.196;6.592;2024-03-29T07:47:18;3.23;;;0.60;;
30127;SDS011;16942;53.196;6.592;2024-03-29T07:49:46;0.97;;;0.60;;
30127;SDS011;16942;53.196;6.592;2024-03-29T07:52:12;4.03;;;0.60;;
30127;SDS011;16942;53.196;6.592;2024-03-29T07:54:38;1.43;;;0.50;;
30127;SDS011;16942;53.196;6.592;2024-03-29T07:57:04;2.80;;;0.53;;
30127;SDS011;16942;53.196;6.592;2024-03-29T07:59:33;1.20;;;0.67;;
30127;SDS011;16942;53.196;6.592;2024-03-29T08:01:59;1.53;;;0.60;;
30127;SDS011;16942;53.196;6.592;2024-03-29T08:04:27;2.93;;;0.73;;
30127;SDS011;16942;53.196;6.592;2024-03-29T08:06:53;2.50;;;0.57;;
30127;SDS011;16942;53.196;6.592;2024-03-29T08:09:20;2.80;;;0.60;;
30127;SDS011;16942;53.196;6.592;2024-03-29T08:11:45;3.47;;;0.80;;
30127;SDS011;16942;53.196;6.592;2024-03-29T08:14:11;1.13;;;0.60;;
30127;SDS011;16942;53.196;6.592;2024-03-29T08:16:37;2.33;;;0.70;;
30127;SDS011;16942;53.196;6.592;2024-03-29T08:19:03;6.20;;;0.73;;
30127;SDS011;16942;53.196;6.592;2024-03-29T08:21:30;1.30;;;0.60;;
30127;SDS011;16942;53.196;6.592;2024-03-29T08:23:56;2.83;;;0.30;;
30127;SDS011;16942;53.196;6.592;2024-03-29T08:26:22;2.73;;;0.60;;
30127;SDS011;16942;53.196;6.592;2024-03-29T08:28:49;1.87;;;0.50;;
30127;SDS011;16942;53.196;6.592;2024-03-29T08:31:15;2.37;;;0.87;;
30127;SDS011;16942;53.196;6.592;2024-03-29T08:33:41;1.43;;;0.50;;
30127;SDS011;16942;53.196;6.592;2024-03-29T08:36:08;0.90;;;0.80;;
30127;SDS011;16942;53.196;6.592;2024-03-29T08:38:35;1.23;;;0.50;;
30127;SDS011;16942;53.196;6.592;2024-03-29T08:41:02;1.27;;;0.70;;
30127;SDS011;16942;53.196;6.592;2024-03-29T08:43:28;4.27;;;0.80;;
30127;SDS011;16942;53.196;6.592;2024-03-29T08:45:54;2.10;;;0.57;;
30127;SDS011;16942;53.196;6.592;2024-03-29T08:48:21;1.70;;;0.40;;
30127;SDS011;16942;53.196;6.592;2024-03-29T08:50:47;2.10;;;0.50;;
30127;SDS011;16942;53.196;6.592;2024-03-29T08:53:13;1.53;;;0.53;;
30127;SDS011;16942;53.196;6.592;2024-03-29T08:55:39;1.90;;;0.60;;
30127;SDS011;16942;53.196;6.592;2024-03-29T08:58:05;1.23;;;0.40;;
30127;SDS011;16942;53.196;6.592;2024-03-29T09:00:31;1.10;;;0.60;;
30127;SDS011;16942;53.196;6.592;2024-03-29T09:02:58;0.87;;;0.60;;
30127;SDS011;16942;53.196;6.592;2024-03-29T09:05:24;2.20;;;0.90;;
30127;SDS011;16942;53.196;6.592;2024-03-29T09:07:54;0.63;;;0.50;;
30127;SDS011;16942;53.196;6.592;2024-03-29T09:10:21;2.40;;;0.60;;
30127;SDS011;16942;53.196;6.592;2024-03-29T09:12:47;0.80;;;0.60;;
30127;SDS011;16942;53.196;6.592;2024-03-29T09:15:13;1.70;;;0.70;;
30127;SDS011;16942;53.196;6.592;2024-03-29T09:17:40;1.83;;;0.60;;
30127;SDS011;16942;53.196;6.592;2024-03-29T09:20:07;3.40;;;0.53;;
30127;SDS011;16942;53.196;6.592;2024-03-29T09:22:33;1.03;;;0.60;;
30127;SDS011;16942;53.196;6.592;2024-03-29T09:24:59;3.07;;;0.77;;
30127;SDS011;16942;53.196;6.592;2024-03-29T09:27:26;2.00;;;0.53;;
30127;SDS011;16942;53.196;6.592;2024-03-29T09:29:52;0.87;;;0.53;;
30127;SDS011;16942;53.196;6.592;2024-03-29T09:32:18;3.03;;;1.40;;
30127;SDS011;16942;53.196;6.592;2024-03-29T09:34:46;1.30;;;0.60;;
30127;SDS011;16942;53.196;6.592;2024-03-29T09:37:12;1.70;;;0.60;;
30127;SDS011;16942;53.196;6.592;2024-03-29T09:39:38;0.40;;;0.40;;
30127;SDS011;16942;53.196;6.592;2024-03-29T09:42:04;0.57;;;0.50;;
30127;SDS011;16942;53.196;6.592;2024-03-29T09:44:32;1.20;;;0.40;;
30127;SDS011;16942;53.196;6.592;2024-03-29T09:47:04;2.63;;;0.80;;
30127;SDS011;16942;53.196;6.592;2024-03-29T09:49:31;4.70;;;0.63;;
30127;SDS011;16942;53.196;6.592;2024-03-29T09:52:00;1.07;;;0.60;;
30127;SDS011;16942;53.196;6.592;2024-03-29T09:54:27;1.23;;;0.70;;
30127;SDS011;16942;53.196;6.592;2024-03-29T09:56:55;0.80;;;0.57;;
30127;SDS011;16942;53.196;6.592;2024-03-29T09:59:22;1.83;;;0.73;;
30127;SDS011;16942;53.196;6.592;2024-03-29T10:01:48;1.17;;;0.77;;
30127;SDS011;16942;53.196;6.592;2024-03-29T10:04:15;0.53;;;0.50;;
30127;SDS011;16942;53.196;6.592;2024-03-29T10:06:41;1.77;;;0.60;;
30127;SDS011;16942;53.196;6.592;2024-03-29T10:09:09;1.60;;;0.70;;
30127;SDS011;16942;53.196;6.592;2024-03-29T10:11:36;2.20;;;0.80;;
30127;SDS011;16942;53.196;6.592;2024-03-29T10:14:02;2.20;;;0.70;;
30127;SDS011;16942;53.196;6.592;2024-03-29T10:16:30;1.00;;;0.50;;
30127;SDS011;16942;53.196;6.592;2024-03-29T10:18:58;0.60;;;0.60;;
30127;SDS011;16942;53.196;6.592;2024-03-29T10:21:26;0.70;;;0.70;;
30127;SDS011;16942;53.196;6.592;2024-03-29T10:23:52;0.87;;;0.60;;
30127;SDS011;16942;53.196;6.592;2024-03-29T10:26:19;1.20;;;0.67;;
30127;SDS011;16942;53.196;6.592;2024-03-29T10:28:46;1.53;;;0.60;;
30127;SDS011;16942;53.196;6.592;2024-03-29T10:31:13;0.83;;;0.60;;
30127;SDS011;16942;53.196;6.592;2024-03-29T10:33:41;1.53;;;0.63;;
30127;SDS011;16942;53.196;6.592;2024-03-29T10:36:08;0.87;;;0.60;;
30127;SDS011;16942;53.196;6.592;2024-03-29T10:38:37;0.97;;;0.60;;
30127;SDS011;16942;53.196;6.592;2024-03-29T10:41:03;1.23;;;0.50;;
30127;SDS011;16942;53.196;6.592;2024-03-29T10:43:31;0.73;;;0.67;;
30127;SDS011;16942;53.196;6.592;2024-03-29T10:45:58;1.33;;;0.60;;
30127;SDS011;16942;53.196;6.592;2024-03-29T10:48:25;0.93;;;0.43;;
30127;SDS011;16942;53.196;6.592;2024-03-29T10:50:53;1.03;;;0.50;;
30127;SDS011;16942;53.196;6.592;2024-03-29T10:53:19;1.57;;;0.53;;
30127;SDS011;16942;53.196;6.592;2024-03-29T10:55:46;1.53;;;0.73;;
30127;SDS011;16942;53.196;6.592;2024-03-29T10:58:13;1.50;;;0.70;;
30127;SDS011;16942;53.196;6.592;2024-03-29T11:00:44;1.53;;;0.60;;
30127;SDS011;16942;53.196;6.592;2024-03-29T11:03:19;3.13;;;0.87;;
30127;SDS011;16942;53.196;6.592;2024-03-29T11:05:49;1.47;;;0.80;;
30127;SDS011;16942;53.196;6.592;2024-03-29T11:08:22;0.70;;;0.70;;
30127;SDS011;16942;53.196;6.592;2024-03-29T11:10:53;1.20;;;1.10;;
30127;SDS011;16942;53.196;6.592;2024-03-29T11:15:52;1.50;;;0.83;;
30127;SDS011;16942;53.196;6.592;2024-03-29T11:18:18;2.63;;;0.97;;
30127;SDS011;16942;53.196;6.592;2024-03-29T11:20:48;2.87;;;0.90;;
30127;SDS011;16942;53.196;6.592;2024-03-29T11:23:17;5.50;;;0.90;;
30127;SDS011;16942;53.196;6.592;2024-03-29T11:25:44;0.83;;;0.70;;
30127;SDS011;16942;53.196;6.592;2024-03-29T11:28:11;1.07;;;0.73;;
30127;SDS011;16942;53.196;6.592;2024-03-29T11:30:47;4.10;;;0.87;;
30127;SDS011;16942;53.196;6.592;2024-03-29T11:33:32;1.10;;;0.53;;
30127;SDS011;16942;53.196;6.592;2024-03-29T11:35:59;0.50;;;0.50;;
30127;SDS011;16942;53.196;6.592;2024-03-29T11:38:29;1.60;;;0.50;;
30127;SDS011;16942;53.196;6.592;2024-03-29T11:41:14;0.73;;;0.60;;
30127;SDS011;16942;53.196;6.592;2024-03-29T11:43:40;1.93;;;0.80;;
30127;SDS011;16942;53.196;6.592;2024-03-29T11:46:11;0.90;;;0.70;;
30127;SDS011;16942;53.196;6.592;2024-03-29T11:48:38;2.70;;;0.80;;
30127;SDS011;16942;53.196;6.592;2024-03-29T11:51:08;1.20;;;1.00;;
30127;SDS011;16942;53.196;6.592;2024-03-29T11:53:36;1.73;;;1.40;;
30127;SDS011;16942;53.196;6.592;2024-03-29T11:56:02;1.20;;;1.10;;
30127;SDS011;16942;53.196;6.592;2024-03-29T11:58:29;3.93;;;1.10;;
30127;SDS011;16942;53.196;6.592;2024-03-29T12:00:56;1.50;;;1.40;;
30127;SDS011;16942;53.196;6.592;2024-03-29T12:03:22;2.30;;;1.67;;
30127;SDS011;16942;53.196;6.592;2024-03-29T12:05:50;2.13;;;1.40;;
30127;SDS011;16942;53.196;6.592;2024-03-29T12:08:16;3.70;;;1.20;;
30127;SDS011;16942;53.196;6.592;2024-03-29T12:10:42;2.83;;;1.60;;
30127;SDS011;16942;53.196;6.592;2024-03-29T12:13:09;2.37;;;1.50;;
30127;SDS011;16942;53.196;6.592;2024-03-29T12:15:35;2.23;;;1.57;;
30127;SDS011;16942;53.196;6.592;2024-03-29T12:18:02;1.87;;;1.20;;
30127;SDS011;16942;53.196;6.592;2024-03-29T12:20:30;2.20;;;1.43;;
30127;SDS011;16942;53.196;6.592;2024-03-29T12:22:59;4.83;;;1.60;;
30127;SDS011;16942;53.196;6.592;2024-03-29T12:25:26;1.77;;;1.10;;
30127;SDS011;16942;53.196;6.592;2024-03-29T12:27:53;3.57;;;1.40;;
30127;SDS011;16942;53.196;6.592;2024-03-29T12:30:19;2.00;;;1.17;;
30127;SDS011;16942;53.196;6.592;2024-03-29T12:32:45;4.70;;;2.13;;
30127;SDS011;16942;53.196;6.592;2024-03-29T12:35:12;4.13;;;1.80;;
30127;SDS011;16942;53.196;6.592;2024-03-29T12:37:46;2.30;;;1.90;;
30127;SDS011;16942;53.196;6.592;2024-03-29T12:40:15;6.57;;;2.03;;
30127;SDS011;16942;53.196;6.592;2024-03-29T12:42:43;2.63;;;1.60;;
30127;SDS011;16942;53.196;6.592;2024-03-29T12:45:09;3.40;;;1.90;;
30127;SDS011;16942;53.196;6.592;2024-03-29T12:47:35;1.87;;;1.13;;
30127;SDS011;16942;53.196;6.592;2024-03-29T12:50:04;4.33;;;1.83;;
30127;SDS011;16942;53.196;6.592;2024-03-29T12:52:37;2.57;;;1.83;;
30127;SDS011;16942;53.196;6.592;2024-03-29T12:55:03;2.83;;;1.63;;
30127;SDS011;16942;53.196;6.592;2024-03-29T12:57:30;3.13;;;1.50;;
30127;SDS011;16942;53.196;6.592;2024-03-29T12:59:56;2.20;;;1.70;;
30127;SDS011;16942;53.196;6.592;2024-03-29T13:02:22;1.70;;;1.57;;
30127;SDS011;16942;53.196;6.592;2024-03-29T13:04:48;3.13;;;1.60;;
30127;SDS011;16942;53.196;6.592;2024-03-29T13:07:15;2.85;;;1.30;;
30127;SDS011;16942;53.196;6.592;2024-03-29T13:09:42;3.10;;;2.25;;
30127;SDS011;16942;53.196;6.592;2024-03-29T13:12:07;2.53;;;1.10;;
30127;SDS011;16942;53.196;6.592;2024-03-29T13:14:34;3.08;;;1.33;;
30127;SDS011;16942;53.196;6.592;2024-03-29T13:17:00;2.20;;;1.50;;
30127;SDS011;16942;53.196;6.592;2024-03-29T13:19:26;1.98;;;1.00;;
30127;SDS011;16942;53.196;6.592;2024-03-29T13:21:52;1.60;;;1.08;;
30127;SDS011;16942;53.196;6.592;2024-03-29T13:24:18;3.42;;;1.45;;
30127;SDS011;16942;53.196;6.592;2024-03-29T13:26:44;2.65;;;1.30;;
30127;SDS011;16942;53.196;6.592;2024-03-29T13:29:10;4.60;;;1.30;;
30127;SDS011;16942;53.196;6.592;2024-03-29T13:31:38;4.07;;;1.60;;
30127;SDS011;16942;53.196;6.592;2024-03-29T13:34:04;5.17;;;1.60;;
30127;SDS011;16942;53.196;6.592;2024-03-29T13:36:40;1.73;;;1.02;;
30127;SDS011;16942;53.196;6.592;2024-03-29T13:39:07;2.30;;;0.90;;
30127;SDS011;16942;53.196;6.592;2024-03-29T13:41:34;3.88;;;0.90;;
30127;SDS011;16942;53.196;6.592;2024-03-29T13:44:01;1.75;;;0.80;;
30127;SDS011;16942;53.196;6.592;2024-03-29T13:46:34;1.70;;;0.87;;
30127;SDS011;16942;53.196;6.592;2024-03-29T13:49:00;2.83;;;1.30;;
30127;SDS011;16942;53.196;6.592;2024-03-29T13:51:26;1.13;;;1.03;;
30127;SDS011;16942;53.196;6.592;2024-03-29T13:53:52;0.93;;;0.70;;
30127;SDS011;16942;53.196;6.592;2024-03-29T13:56:21;3.13;;;1.27;;
30127;SDS011;16942;53.196;6.592;2024-03-29T13:58:48;5.50;;;1.00;;
30127;SDS011;16942;53.196;6.592;2024-03-29T14:01:14;1.37;;;0.80;;
30127;SDS011;16942;53.196;6.592;2024-03-29T14:03:41;0.93;;;0.80;;
30127;SDS011;16942;53.196;6.592;2024-03-29T14:06:08;1.93;;;1.10;;
30127;SDS011;16942;53.196;6.592;2024-03-29T14:08:34;0.70;;;0.60;;
30127;SDS011;16942;53.196;6.592;2024-03-29T14:11:01;2.57;;;0.90;;
30127;SDS011;16942;53.196;6.592;2024-03-29T14:13:27;3.50;;;0.90;;
30127;SDS011;16942;53.196;6.592;2024-03-29T14:15:53;0.93;;;0.73;;
30127;SDS011;16942;53.196;6.592;2024-03-29T14:18:20;2.00;;;0.70;;
30127;SDS011;16942;53.196;6.592;2024-03-29T14:20:46;2.43;;;1.17;;
30127;SDS011;16942;53.196;6.592;2024-03-29T14:23:12;2.10;;;0.80;;
30127;SDS011;16942;53.196;6.592;2024-03-29T14:25:41;1.50;;;0.70;;
30127;SDS011;16942;53.196;6.592;2024-03-29T14:28:07;1.27;;;0.90;;
30127;SDS011;16942;53.196;6.592;2024-03-29T14:30:34;0.73;;;0.63;;
30127;SDS011;16942;53.196;6.592;2024-03-29T14:33:00;3.07;;;0.60;;
30127;SDS011;16942;53.196;6.592;2024-03-29T14:35:31;0.60;;;0.60;;
30127;SDS011;16942;53.196;6.592;2024-03-29T14:37:57;2.20;;;0.80;;
30127;SDS011;16942;53.196;6.592;2024-03-29T14:40:24;1.00;;;0.70;;
30127;SDS011;16942;53.196;6.592;2024-03-29T14:42:51;2.90;;;0.80;;
30127;SDS011;16942;53.196;6.592;2024-03-29T14:45:19;1.53;;;0.83;;
30127;SDS011;16942;53.196;6.592;2024-03-29T14:47:45;0.60;;;0.60;;